Current | Forecast
Updated: 7:30 PM CEST on April 28, 2017
Observed at Valencia Aeropuerto, Spain
Temperature 14°C
Humidity 67%
Dew Point 8°C
Wind Variable at 4 km/h
Pressure 1017 hPa (Steady)
Conditions Mostly Cloudy
Visibility 10.0 kilometers
UV 1 out of 16
Clouds Scattered Clouds (SCT) : 762 m
Mostly Cloudy (BKN) : 1097 m
Yesterday's Maximum 15°C
Yesterday's Minimum 10°C approx.
Yesterday's Heating Degree Days 11 approx.
Sunrise7:07 AM CEST
Sunset8:51 PM CEST
Moon Rise8:52 AM CEST
Moon Set11:17 PM CEST
Moon PhaseMoon Phase
Waxing Crescent
Raw METARMETAR LEVC 281730Z VRB02KT 9999 SCT025 BKN036 14/08 Q1017 NOSIG


Monday
. High: 91° F.
Tuesday
. High: 80° F.
Wednesday
. High: 77° F.
Thursday
. High: 77° F.
Friday
. High: 73° F.
Saturday
. High: 86° F.
Sunday
. High: 78° F.
Monday
. High: 73° F.

Click here for Marine Information
Scientific forecaster discussion (NWS)

Units: English | Metric

Find the Weather for any City, State or Zipcode, or Country:

U.S. State List | Severe Weather | Tropical Storms | Ski Conditions
United States | Canada | Central America | South America | Asia | Europe | Australia | Africa | Islands

Weather Underground

© Copyright 2017
The Weather Company, LLC